createdAt,value
2022-08-16T00:00:28.312Z,22.65
2022-08-16T00:03:06.214Z,22.62
2022-08-16T00:05:47.852Z,22.48
2022-08-16T00:08:36.265Z,22.34
2022-08-16T00:11:03.579Z,22.37
2022-08-16T00:13:30.472Z,22.38
2022-08-16T00:15:57.259Z,22.42
2022-08-16T00:18:29.833Z,22.36
2022-08-16T00:20:57.665Z,22.33
2022-08-16T00:23:40.231Z,22.29
2022-08-16T00:26:35.576Z,22.28
2022-08-16T00:28:58.417Z,22.19
2022-08-16T00:31:26.243Z,22.09
2022-08-16T00:34:18.445Z,22.05
2022-08-16T00:36:47.407Z,22.06
2022-08-16T00:39:16.365Z,22.03
2022-08-16T00:41:49.012Z,22.15
2022-08-16T00:44:18.658Z,22.01
2022-08-16T00:47:09.053Z,22.01
2022-08-16T00:49:39.338Z,22.04
2022-08-16T00:52:29.195Z,22.04
2022-08-16T00:54:56.750Z,21.99
2022-08-16T00:57:24.011Z,21.96
2022-08-16T00:59:59.480Z,21.94
2022-08-16T01:02:30.882Z,21.90
2022-08-16T01:05:11.314Z,21.80
2022-08-16T01:07:49.765Z,21.81
2022-08-16T01:10:32.382Z,21.71
2022-08-16T01:13:05.875Z,21.75
2022-08-16T01:15:36.262Z,21.69
2022-08-16T01:18:05.007Z,21.69
2022-08-16T01:20:38.122Z,21.61
2022-08-16T01:23:17.936Z,21.58
2022-08-16T01:26:00.406Z,21.60
2022-08-16T01:28:38.899Z,21.54
2022-08-16T01:31:14.912Z,21.54
2022-08-16T01:33:44.717Z,21.43
2022-08-16T01:36:12.928Z,21.43
2022-08-16T01:38:46.956Z,21.41
2022-08-16T01:41:25.728Z,21.36
2022-08-16T01:43:56.962Z,21.30
2022-08-16T01:46:40.773Z,21.33
2022-08-16T01:49:15.103Z,21.27
2022-08-16T01:51:44.374Z,21.24
2022-08-16T01:54:13.186Z,21.22
2022-08-16T01:56:40.977Z,21.03
2022-08-16T01:59:15.930Z,20.99
2022-08-16T02:01:52.637Z,20.86
2022-08-16T02:04:48.235Z,20.83
2022-08-16T02:07:15.463Z,20.79
2022-08-16T02:09:44.298Z,20.79
2022-08-16T02:12:43.612Z,20.70
2022-08-16T02:15:15.747Z,20.59
2022-08-16T02:17:43.271Z,20.55
2022-08-16T02:20:26.226Z,20.61
2022-08-16T02:22:55.292Z,20.55
2022-08-16T02:25:23.178Z,20.48
2022-08-16T02:27:50.760Z,20.51
2022-08-16T02:30:36.647Z,20.46
2022-08-16T02:33:11.116Z,20.49
2022-08-16T02:35:54.559Z,20.51
2022-08-16T02:38:26.384Z,20.47
2022-08-16T02:40:54.554Z,20.46
2022-08-16T02:43:26.914Z,20.44
2022-08-16T02:45:57.610Z,20.36
2022-08-16T02:48:29.910Z,20.30
2022-08-16T02:51:06.798Z,20.34
2022-08-16T02:53:44.688Z,20.16
2022-08-16T02:56:15.532Z,20.24
2022-08-16T02:58:49.352Z,20.21
2022-08-16T03:01:24.571Z,20.16
2022-08-16T03:04:41.222Z,20.17
2022-08-16T03:06:48.631Z,20.14
2022-08-16T03:09:19.165Z,20.07
2022-08-16T03:11:47.448Z,20.02
2022-08-16T03:14:21.210Z,20.05
2022-08-16T03:16:58.906Z,19.99
2022-08-16T03:19:48.245Z,19.98
2022-08-16T03:22:18.910Z,19.93
2022-08-16T03:24:46.661Z,19.86
2022-08-16T03:27:13.774Z,19.80
2022-08-16T03:29:42.764Z,19.78
2022-08-16T03:32:21.637Z,19.76
2022-08-16T03:34:49.986Z,19.66
2022-08-16T03:37:17.546Z,19.58
2022-08-16T03:39:48.387Z,19.61
2022-08-16T03:42:23.633Z,19.58
2022-08-16T03:44:50.476Z,19.56
2022-08-16T03:47:19.770Z,19.54
2022-08-16T03:49:51.663Z,19.55
2022-08-16T03:52:23.926Z,19.53
2022-08-16T03:54:59.486Z,19.46
2022-08-16T03:57:32.129Z,19.54
2022-08-16T04:00:35.223Z,19.49
2022-08-16T04:03:08.542Z,19.57
2022-08-16T04:05:39.049Z,19.57
2022-08-16T04:08:22.927Z,19.67
2022-08-16T04:10:55.686Z,19.67
2022-08-16T04:13:59.003Z,19.71
2022-08-16T04:16:27.436Z,19.77
2022-08-16T04:19:01.273Z,19.87
2022-08-16T04:21:46.173Z,19.97
2022-08-16T04:24:14.887Z,20.12
2022-08-16T04:26:45.812Z,20.24
2022-08-16T04:29:21.158Z,20.41
2022-08-16T04:31:56.283Z,20.54
2022-08-16T04:34:31.431Z,20.74
2022-08-16T04:37:01.453Z,20.86
2022-08-16T04:39:44.888Z,21.01
2022-08-16T04:42:15.591Z,21.13
2022-08-16T04:44:54.669Z,21.31
2022-08-16T04:47:31.304Z,21.27
2022-08-16T04:50:00.061Z,21.34
2022-08-16T04:52:33.603Z,21.55
2022-08-16T04:55:01.659Z,21.69
2022-08-16T04:57:30.554Z,21.75
2022-08-16T04:59:59.532Z,21.98
2022-08-16T05:02:54.786Z,22.03
2022-08-16T05:05:24.154Z,22.18
2022-08-16T05:07:58.658Z,22.28
2022-08-16T05:10:29.510Z,22.33
2022-08-16T05:12:58.467Z,22.46
2022-08-16T05:15:25.796Z,22.51
2022-08-16T05:17:58.636Z,22.66
2022-08-16T05:20:39.306Z,22.72
2022-08-16T05:23:17.487Z,22.79
2022-08-16T05:25:48.361Z,22.92
2022-08-16T05:28:17.600Z,23.07
2022-08-16T05:30:50.427Z,23.06
2022-08-16T05:33:18.494Z,23.08
2022-08-16T05:35:55.639Z,23.15
2022-08-16T05:38:32.354Z,23.32
2022-08-16T05:41:06.914Z,23.40
2022-08-16T05:43:43.196Z,23.43
2022-08-16T05:46:30.628Z,23.53
2022-08-16T05:49:08.766Z,23.69
2022-08-16T05:51:39.962Z,23.83
2022-08-16T05:54:11.671Z,23.94
2022-08-16T05:56:42.974Z,24.05
2022-08-16T05:59:10.932Z,24.15
2022-08-16T06:01:39.580Z,24.16
2022-08-16T06:04:12.758Z,24.23
2022-08-16T06:06:55.760Z,24.33
2022-08-16T06:09:25.956Z,24.50
2022-08-16T06:12:11.756Z,24.60
2022-08-16T06:14:40.030Z,24.60
2022-08-16T06:17:07.747Z,24.62
2022-08-16T06:19:41.507Z,24.59
2022-08-16T06:22:11.446Z,24.63
2022-08-16T06:24:58.753Z,24.62
2022-08-16T06:27:27.445Z,24.53
2022-08-16T06:30:11.320Z,24.57
2022-08-16T06:32:42.809Z,24.33
2022-08-16T06:35:11.777Z,24.04
2022-08-16T06:37:47.004Z,23.81
2022-08-16T06:40:19.889Z,23.95
2022-08-16T06:42:48.445Z,24.17
2022-08-16T06:45:15.799Z,24.52
2022-08-16T06:47:52.922Z,24.96
2022-08-16T06:50:28.554Z,25.19
2022-08-16T06:53:09.033Z,25.40
2022-08-16T06:55:38.271Z,25.43
2022-08-16T06:58:08.402Z,25.51
2022-08-16T07:00:43.044Z,25.47
2022-08-16T07:03:27.681Z,25.69
2022-08-16T07:05:58.016Z,25.82
2022-08-16T07:08:27.261Z,25.79
2022-08-16T07:10:54.759Z,25.81
2022-08-16T07:13:58.001Z,25.81
2022-08-16T07:16:15.546Z,25.77
2022-08-16T07:18:58.929Z,26.10
2022-08-16T07:21:45.859Z,26.30
2022-08-16T07:24:30.610Z,26.57
2022-08-16T07:27:02.139Z,26.86
2022-08-16T07:29:32.043Z,26.97
2022-08-16T07:32:00.535Z,27.11
2022-08-16T07:34:35.802Z,27.33
2022-08-16T07:37:11.006Z,27.34
2022-08-16T07:39:44.681Z,27.38
2022-08-16T07:42:26.152Z,27.51
2022-08-16T07:44:58.018Z,27.66
2022-08-16T07:47:31.404Z,27.91
2022-08-16T07:50:07.749Z,28.17
2022-08-16T07:52:38.652Z,28.43
2022-08-16T07:55:08.105Z,28.61
2022-08-16T07:57:44.360Z,28.94
2022-08-16T08:00:26.331Z,29.09
2022-08-16T08:02:57.037Z,28.89
2022-08-16T08:05:28.186Z,28.86
2022-08-16T08:08:11.491Z,28.85
2022-08-16T08:10:51.223Z,28.98
2022-08-16T08:13:18.529Z,29.34
2022-08-16T08:15:53.134Z,29.47
2022-08-16T08:18:29.455Z,29.73
2022-08-16T08:20:59.038Z,29.65
2022-08-16T08:23:27.717Z,29.68
2022-08-16T08:25:55.856Z,29.93
2022-08-16T08:28:23.135Z,30.04
2022-08-16T08:31:01.433Z,30.29
2022-08-16T08:33:31.665Z,30.55
2022-08-16T08:36:01.228Z,30.41
2022-08-16T08:38:45.717Z,30.83
2022-08-16T08:41:15.478Z,31.18
2022-08-16T08:43:47.351Z,31.63
2022-08-16T08:46:21.742Z,32.03
2022-08-16T08:49:01.959Z,32.73
2022-08-16T08:51:31.915Z,33.38
2022-08-16T08:54:06.552Z,33.14
2022-08-16T08:56:37.270Z,33.84
2022-08-16T08:59:13.466Z,34.66
2022-08-16T09:01:56.295Z,34.65
2022-08-16T09:04:29.516Z,34.74
2022-08-16T09:06:58.508Z,35.29
2022-08-16T09:09:33.533Z,35.30
2022-08-16T09:12:06.336Z,35.78
2022-08-16T09:14:35.459Z,35.83
2022-08-16T09:17:11.564Z,35.88
2022-08-16T09:19:42.234Z,36.31
2022-08-16T09:22:19.784Z,36.36
2022-08-16T09:24:53.415Z,37.02
2022-08-16T09:27:23.569Z,36.86
2022-08-16T09:29:59.738Z,36.43
2022-08-16T09:32:30.491Z,37.43
2022-08-16T09:35:01.594Z,37.60
2022-08-16T09:37:36.391Z,37.86
2022-08-16T09:40:31.681Z,38.19
2022-08-16T09:42:59.127Z,37.49
2022-08-16T09:45:29.036Z,37.74
2022-08-16T09:47:58.398Z,38.31
2022-08-16T09:50:36.755Z,38.28
2022-08-16T09:53:15.580Z,38.17
2022-08-16T09:55:49.540Z,38.76
2022-08-16T09:58:41.912Z,38.91
2022-08-16T10:01:08.634Z,39.32
2022-08-16T10:04:01.105Z,38.68
2022-08-16T10:06:33.710Z,38.65
2022-08-16T10:09:08.174Z,39.23
2022-08-16T10:11:56.179Z,38.63
2022-08-16T10:14:40.698Z,39.27
2022-08-16T10:17:13.562Z,39.83
2022-08-16T10:19:43.467Z,40.65
2022-08-16T10:22:12.702Z,40.27
2022-08-16T10:24:40.720Z,41.18
2022-08-16T10:27:28.913Z,41.64
2022-08-16T10:30:06.537Z,41.23
2022-08-16T10:32:50.906Z,41.03
2022-08-16T10:35:18.775Z,40.70
2022-08-16T10:37:45.987Z,41.86
2022-08-16T10:40:29.388Z,41.84
2022-08-16T10:43:00.308Z,41.82
2022-08-16T10:45:37.014Z,41.87
2022-08-16T10:48:28.050Z,41.19
2022-08-16T10:50:56.332Z,42.77
2022-08-16T10:53:33.006Z,42.60
2022-08-16T10:56:02.756Z,41.91
2022-08-16T10:58:34.339Z,43.32
2022-08-16T11:03:57.370Z,43.27
2022-08-16T11:06:27.807Z,42.72
2022-08-16T11:14:34.066Z,43.63
2022-08-16T11:17:10.630Z,43.52
2022-08-16T11:22:41.877Z,42.38
2022-08-16T11:28:08.987Z,42.17
2022-08-16T11:30:38.669Z,40.95
2022-08-16T11:33:10.772Z,39.38
2022-08-16T11:36:22.474Z,39.99
2022-08-16T11:38:51.907Z,40.80
2022-08-16T11:41:13.796Z,40.67
2022-08-16T11:43:45.040Z,39.24
2022-08-16T11:46:45.031Z,39.85
2022-08-16T11:49:02.982Z,38.92
2022-08-16T11:51:30.194Z,38.54
2022-08-16T11:53:57.897Z,37.81
2022-08-16T11:56:39.773Z,36.17
2022-08-16T11:59:12.824Z,34.83
2022-08-16T12:01:54.784Z,36.43
2022-08-16T12:04:26.071Z,37.23
2022-08-16T12:06:53.784Z,37.90
2022-08-16T12:09:24.116Z,37.45
2022-08-16T12:11:53.186Z,38.02
2022-08-16T12:14:23.110Z,38.78
2022-08-16T12:16:55.546Z,36.90
2022-08-16T12:19:33.486Z,37.13
2022-08-16T12:22:01.603Z,37.95
2022-08-16T12:24:32.935Z,39.63
2022-08-16T12:27:00.954Z,37.24
2022-08-16T12:29:30.121Z,37.24
2022-08-16T12:32:01.670Z,36.86
2022-08-16T12:34:50.516Z,37.87
2022-08-16T12:37:20.750Z,38.05
2022-08-16T12:39:51.279Z,37.27
2022-08-16T12:42:20.368Z,36.28
2022-08-16T12:44:49.591Z,37.66
2022-08-16T12:47:37.337Z,39.62
2022-08-16T12:50:10.387Z,41.77
2022-08-16T12:52:40.047Z,42.08
2022-08-16T12:55:14.363Z,40.99
2022-08-16T12:57:41.914Z,41.23
2022-08-16T13:00:26.696Z,42.30
2022-08-16T13:03:02.439Z,42.11
2022-08-16T13:08:04.071Z,43.73
2022-08-16T13:10:39.253Z,43.04
2022-08-16T13:13:09.214Z,42.65
2022-08-16T13:15:51.751Z,42.59
2022-08-16T13:18:34.778Z,40.43
2022-08-16T13:21:08.488Z,37.47
2022-08-16T13:23:43.223Z,36.55
2022-08-16T13:26:12.789Z,37.67
2022-08-16T13:28:47.686Z,38.83
2022-08-16T13:31:16.055Z,39.74
2022-08-16T13:33:44.437Z,38.57
2022-08-16T13:36:21.161Z,38.13
2022-08-16T13:39:00.049Z,37.67
2022-08-16T13:41:30.261Z,38.35
2022-08-16T13:44:00.905Z,39.41
2022-08-16T13:46:32.428Z,38.36
2022-08-16T13:48:59.800Z,38.91
2022-08-16T13:51:30.720Z,38.64
2022-08-16T13:54:03.901Z,40.30
2022-08-16T13:56:37.640Z,40.84
2022-08-16T13:59:14.437Z,41.68
2022-08-16T14:01:55.511Z,41.55
2022-08-16T14:04:31.713Z,42.71
2022-08-16T14:07:00.882Z,40.84
2022-08-16T14:09:30.490Z,39.27
2022-08-16T14:12:00.845Z,39.73
2022-08-16T14:14:29.885Z,39.59
2022-08-16T14:16:59.535Z,38.25
2022-08-16T14:19:27.976Z,37.46
2022-08-16T14:22:14.041Z,37.12
2022-08-16T14:24:45.321Z,36.58
2022-08-16T14:27:19.600Z,36.00
2022-08-16T14:29:55.386Z,36.18
2022-08-16T14:32:33.885Z,35.93
2022-08-16T14:35:15.625Z,35.80
2022-08-16T14:37:43.399Z,35.69
2022-08-16T14:40:15.828Z,35.57
2022-08-16T14:42:46.438Z,35.90
2022-08-16T14:45:18.539Z,36.35
2022-08-16T14:47:46.683Z,36.44
2022-08-16T14:50:24.308Z,36.68
2022-08-16T14:53:00.943Z,36.79
2022-08-16T14:55:30.751Z,38.04
2022-08-16T14:57:58.070Z,38.58
2022-08-16T15:00:33.990Z,38.78
2022-08-16T15:03:06.571Z,37.98
2022-08-16T15:05:38.607Z,38.62
2022-08-16T15:08:06.065Z,39.36
2022-08-16T15:10:37.202Z,39.88
2022-08-16T15:13:09.667Z,39.74
2022-08-16T15:15:38.073Z,40.21
2022-08-16T15:18:06.296Z,39.04
2022-08-16T15:20:41.549Z,37.87
2022-08-16T15:23:09.293Z,36.32
2022-08-16T15:25:43.069Z,36.34
2022-08-16T15:28:30.792Z,35.77
2022-08-16T15:31:03.162Z,35.84
2022-08-16T15:33:33.021Z,35.65
2022-08-16T15:36:00.724Z,36.26
2022-08-16T15:38:54.863Z,36.53
2022-08-16T15:41:43.692Z,36.87
2022-08-16T15:44:14.721Z,37.42
2022-08-16T15:46:55.749Z,36.38
2022-08-16T15:49:38.077Z,36.21
2022-08-16T15:52:15.793Z,36.31
2022-08-16T15:54:53.033Z,36.76
2022-08-16T15:57:27.261Z,36.70
2022-08-16T16:00:04.671Z,37.16
2022-08-16T16:02:43.301Z,37.54
2022-08-16T16:05:10.487Z,35.42
2022-08-16T16:07:53.552Z,34.71
2022-08-16T16:10:29.732Z,33.58
2022-08-16T16:13:05.060Z,32.82
2022-08-16T16:16:06.739Z,33.03
2022-08-16T16:18:40.594Z,32.91
2022-08-16T16:21:12.259Z,32.90
2022-08-16T16:23:53.994Z,32.92
2022-08-16T16:26:22.256Z,32.94
2022-08-16T16:29:07.404Z,32.97
2022-08-16T16:31:41.202Z,32.66
2022-08-16T16:34:11.608Z,32.10
2022-08-16T16:36:39.953Z,32.17
2022-08-16T16:39:10.969Z,32.23
2022-08-16T16:41:39.641Z,32.08
2022-08-16T16:44:09.191Z,32.27
2022-08-16T16:46:42.691Z,32.18
2022-08-16T16:49:11.748Z,32.18
2022-08-16T16:51:44.689Z,32.19
2022-08-16T16:54:28.079Z,32.22
2022-08-16T16:56:57.328Z,32.06
2022-08-16T16:59:25.560Z,31.29
2022-08-16T17:02:38.673Z,30.48
2022-08-16T17:04:43.290Z,30.04
2022-08-16T17:07:11.790Z,29.47
2022-08-16T17:09:41.816Z,29.25
2022-08-16T17:12:12.170Z,28.70
2022-08-16T17:14:50.631Z,28.49
2022-08-16T17:17:17.505Z,28.25
2022-08-16T17:19:49.595Z,28.33
2022-08-16T17:22:20.061Z,28.30
2022-08-16T17:27:37.533Z,27.94
2022-08-16T17:33:01.381Z,27.26
2022-08-16T17:38:33.109Z,27.21
2022-08-16T17:39:27.208Z,27.14
2022-08-16T17:39:28.047Z,28.25
2022-08-16T17:39:28.517Z,27.65
2022-08-16T17:41:07.806Z,27.05
2022-08-16T17:43:43.968Z,26.88
2022-08-16T17:46:51.404Z,26.71
2022-08-16T17:48:59.812Z,26.16
2022-08-16T17:51:28.617Z,25.90
2022-08-16T17:53:55.785Z,25.89
2022-08-16T17:56:22.660Z,25.91
2022-08-16T17:58:49.751Z,26.21
2022-08-16T18:01:21.155Z,26.41
2022-08-16T18:04:08.915Z,26.19
2022-08-16T18:06:36.161Z,26.29
2022-08-16T18:09:04.174Z,26.28
2022-08-16T18:11:34.007Z,26.60
2022-08-16T18:14:01.344Z,26.69
2022-08-16T18:16:28.511Z,26.65
2022-08-16T18:18:55.365Z,26.69
2022-08-16T18:21:41.810Z,26.48
2022-08-16T18:24:10.136Z,26.36
2022-08-16T18:26:37.964Z,26.10
2022-08-16T18:29:05.686Z,25.90
2022-08-16T18:31:34.022Z,25.80
2022-08-16T18:34:01.471Z,25.69
2022-08-16T18:36:28.695Z,25.65
2022-08-16T18:38:55.819Z,25.64
2022-08-16T18:41:24.435Z,25.62
2022-08-16T18:44:22.346Z,25.69
2022-08-16T18:46:43.784Z,25.54
2022-08-16T18:49:14.899Z,25.54
2022-08-16T18:51:45.305Z,25.60
2022-08-16T18:54:18.018Z,25.53
2022-08-16T18:56:55.983Z,25.33
2022-08-16T18:59:29.765Z,25.43
2022-08-16T19:02:00.262Z,25.39
2022-08-16T19:04:55.098Z,25.38
2022-08-16T19:07:30.528Z,25.21
2022-08-16T19:10:05.825Z,25.15
2022-08-16T19:12:38.700Z,25.01
2022-08-16T19:15:14.142Z,24.83
2022-08-16T19:17:42.121Z,24.63
2022-08-16T19:20:12.194Z,24.74
2022-08-16T19:25:47.155Z,24.31
2022-08-16T19:28:51.497Z,24.27
2022-08-16T19:31:16.512Z,24.33
2022-08-16T19:33:53.836Z,24.27
2022-08-16T19:36:35.203Z,24.36
2022-08-16T19:39:11.412Z,24.36
2022-08-16T19:41:43.492Z,24.34
2022-08-16T19:44:10.572Z,24.31
2022-08-16T19:46:41.733Z,24.14
2022-08-16T19:49:09.488Z,24.04
2022-08-16T19:51:43.906Z,23.98
2022-08-16T19:54:11.234Z,23.98
2022-08-16T19:56:38.462Z,24.00
2022-08-16T19:59:40.342Z,23.90
2022-08-16T20:01:56.127Z,24.06
2022-08-16T20:04:24.888Z,24.00
2022-08-16T20:06:54.836Z,23.91
2022-08-16T20:09:23.292Z,23.73
2022-08-16T20:11:53.073Z,23.76
2022-08-16T20:14:25.633Z,23.74
2022-08-16T20:16:55.761Z,23.75
2022-08-16T20:19:22.893Z,23.52
2022-08-16T20:21:57.161Z,23.52
2022-08-16T20:24:40.172Z,23.32
2022-08-16T20:27:09.830Z,23.43
2022-08-16T20:29:38.854Z,23.40
2022-08-16T20:32:07.354Z,23.43
2022-08-16T20:34:35.014Z,23.42
2022-08-16T20:37:01.898Z,23.33
2022-08-16T20:39:28.927Z,23.31
2022-08-16T20:44:40.721Z,23.34
2022-08-16T20:47:08.320Z,23.21
2022-08-16T20:49:36.459Z,23.25
2022-08-16T20:52:12.142Z,23.25
2022-08-16T20:54:39.793Z,23.20
2022-08-16T20:57:07.217Z,23.19
2022-08-16T20:59:34.830Z,23.20
2022-08-16T21:02:01.900Z,22.94
2022-08-16T21:04:29.897Z,22.84
2022-08-16T21:06:59.335Z,22.96
2022-08-16T21:09:28.955Z,22.92
2022-08-16T21:11:57.480Z,22.96
2022-08-16T21:14:25.359Z,22.87
2022-08-16T21:16:52.359Z,22.81
2022-08-16T21:19:20.853Z,22.82
2022-08-16T21:21:47.802Z,22.79
2022-08-16T21:24:15.102Z,22.78
2022-08-16T21:26:49.799Z,22.71
2022-08-16T21:29:24.896Z,22.68
2022-08-16T21:31:52.230Z,22.64
2022-08-16T21:34:19.050Z,22.61
2022-08-16T21:36:45.986Z,22.56
2022-08-16T21:39:13.096Z,22.55
2022-08-16T21:41:40.039Z,22.53
2022-08-16T21:44:07.197Z,22.50
2022-08-16T21:46:34.102Z,22.31
2022-08-16T21:49:00.957Z,22.30
2022-08-16T21:51:27.953Z,22.31
2022-08-16T21:53:55.108Z,22.17
2022-08-16T21:56:21.965Z,22.20
2022-08-16T21:58:53.032Z,22.18
2022-08-16T22:01:23.015Z,22.18
2022-08-16T22:04:03.557Z,22.16
2022-08-16T22:06:39.198Z,21.95
2022-08-16T22:09:07.836Z,22.03
2022-08-16T22:11:34.670Z,22.11
2022-08-16T22:14:03.247Z,22.04
2022-08-16T22:16:33.382Z,22.02
2022-08-16T22:19:01.504Z,21.97
2022-08-16T22:21:29.317Z,21.93
2022-08-16T22:23:58.452Z,21.93
2022-08-16T22:26:34.391Z,21.90
2022-08-16T22:29:04.945Z,21.93
2022-08-16T22:31:33.069Z,21.80
2022-08-16T22:34:01.899Z,21.80
2022-08-16T22:36:30.484Z,21.78
2022-08-16T22:38:59.289Z,21.73
2022-08-16T22:41:32.028Z,21.70
2022-08-16T22:44:01.148Z,21.72
2022-08-16T22:46:28.932Z,21.61
2022-08-16T22:48:56.181Z,21.56
2022-08-16T22:51:25.382Z,21.48
2022-08-16T22:53:52.764Z,21.49
2022-08-16T22:56:19.963Z,21.47
2022-08-16T22:58:47.730Z,21.37
2022-08-16T23:01:16.414Z,21.37
2022-08-16T23:03:43.637Z,21.41
2022-08-16T23:06:12.417Z,21.37
2022-08-16T23:08:41.421Z,21.30
2022-08-16T23:11:21.195Z,21.21
2022-08-16T23:13:57.360Z,21.26
2022-08-16T23:16:32.782Z,21.21
2022-08-16T23:19:04.722Z,21.20
2022-08-16T23:21:32.047Z,21.12
2022-08-16T23:23:59.057Z,21.14
2022-08-16T23:29:22.119Z,21.12
2022-08-16T23:32:11.679Z,20.98
2022-08-16T23:34:38.701Z,20.89
2022-08-16T23:37:06.654Z,20.82
2022-08-16T23:39:35.946Z,20.83
2022-08-16T23:42:11.519Z,20.79
2022-08-16T23:44:56.993Z,20.71
2022-08-16T23:47:25.511Z,20.72
2022-08-16T23:50:00.281Z,20.71
2022-08-16T23:52:53.271Z,20.73
2022-08-16T23:55:17.217Z,20.73
2022-08-16T23:57:46.140Z,20.70
